createdAt,value
2022-11-16T00:01:42.340Z,99.90
2022-11-16T00:04:11.892Z,99.90
2022-11-16T00:06:39.918Z,99.90
2022-11-16T00:09:27.185Z,99.90
2022-11-16T00:11:58.890Z,99.90
2022-11-16T00:14:28.272Z,98.30
2022-11-16T00:16:56.980Z,96.90
2022-11-16T00:19:25.960Z,96.40
2022-11-16T00:21:54.313Z,95.80
2022-11-16T00:24:23.527Z,95.70
2022-11-16T00:26:52.141Z,95.40
2022-11-16T00:29:23.926Z,95.80
2022-11-16T00:31:52.559Z,96.40
2022-11-16T00:34:21.251Z,97.30
2022-11-16T00:36:49.130Z,99.90
2022-11-16T00:39:18.342Z,99.90
2022-11-16T00:41:46.259Z,99.90
2022-11-16T00:44:14.444Z,99.90
2022-11-16T00:46:43.605Z,99.90
2022-11-16T00:49:11.801Z,99.90
2022-11-16T00:51:39.861Z,99.90
2022-11-16T00:54:09.234Z,99.90
2022-11-16T00:56:37.742Z,99.90
2022-11-16T00:59:12.975Z,99.90
2022-11-16T01:01:40.974Z,99.90
2022-11-16T01:04:10.252Z,99.90
2022-11-16T01:06:38.135Z,99.90
2022-11-16T01:09:06.669Z,99.90
2022-11-16T01:11:51.881Z,99.90
2022-11-16T01:14:19.683Z,99.90
2022-11-16T01:16:50.236Z,99.90
2022-11-16T01:19:19.404Z,99.90
2022-11-16T01:21:47.195Z,99.90
2022-11-16T01:24:15.177Z,99.90
2022-11-16T01:26:43.058Z,99.90
2022-11-16T01:29:11.005Z,98.90
2022-11-16T01:31:38.825Z,98.50
2022-11-16T01:34:06.621Z,97.70
2022-11-16T01:36:36.740Z,97.10
2022-11-16T01:39:05.669Z,95.90
2022-11-16T01:41:33.455Z,95.50
2022-11-16T01:44:03.373Z,95.00
2022-11-16T01:46:31.746Z,94.00
2022-11-16T01:49:09.595Z,93.20
2022-11-16T01:51:40.826Z,93.30
2022-11-16T01:54:13.386Z,93.20
2022-11-16T01:56:45.060Z,93.10
2022-11-16T01:59:14.366Z,92.50
2022-11-16T02:01:42.997Z,92.30
2022-11-16T02:04:12.057Z,91.80
2022-11-16T02:06:58.836Z,92.30
2022-11-16T02:09:55.185Z,92.40
2022-11-16T02:12:53.151Z,92.50
2022-11-16T02:15:27.800Z,92.50
2022-11-16T02:18:10.092Z,92.80
2022-11-16T02:21:02.090Z,92.20
2022-11-16T02:24:04.344Z,92.40
2022-11-16T02:26:48.342Z,93.00
2022-11-16T02:29:22.453Z,93.40
2022-11-16T02:31:56.390Z,93.40
2022-11-16T02:34:25.608Z,93.60
2022-11-16T02:36:57.322Z,93.40
2022-11-16T02:39:28.373Z,93.30
2022-11-16T02:41:57.643Z,93.70
2022-11-16T02:44:30.566Z,93.20
2022-11-16T02:47:02.998Z,92.70
2022-11-16T02:49:34.483Z,91.90
2022-11-16T02:52:02.853Z,92.40
2022-11-16T02:54:30.654Z,92.90
2022-11-16T02:57:20.546Z,93.80
2022-11-16T02:59:53.474Z,94.50
2022-11-16T03:02:28.055Z,93.60
2022-11-16T03:05:01.516Z,93.10
2022-11-16T03:07:34.303Z,93.70
2022-11-16T03:10:03.052Z,94.30
2022-11-16T03:12:35.102Z,95.10
2022-11-16T03:15:07.784Z,95.40
2022-11-16T03:17:41.177Z,96.40
2022-11-16T03:20:13.654Z,95.70
2022-11-16T03:22:45.077Z,95.30
2022-11-16T03:25:14.964Z,94.40
2022-11-16T03:27:52.253Z,94.10
2022-11-16T03:30:24.125Z,93.40
2022-11-16T03:32:57.692Z,93.70
2022-11-16T03:35:28.946Z,93.90
2022-11-16T03:37:59.348Z,94.20
2022-11-16T03:40:31.471Z,95.00
2022-11-16T03:43:01.494Z,95.20
2022-11-16T03:45:32.169Z,95.40
2022-11-16T03:48:00.902Z,95.90
2022-11-16T03:50:28.906Z,96.60
2022-11-16T03:52:56.768Z,97.30
2022-11-16T03:55:24.642Z,98.00
2022-11-16T03:57:52.405Z,98.50
2022-11-16T04:00:20.375Z,98.90
2022-11-16T04:02:49.513Z,98.50
2022-11-16T04:05:34.848Z,99.00
2022-11-16T04:08:20.433Z,98.80
2022-11-16T04:11:05.948Z,97.90
2022-11-16T04:13:52.708Z,97.90
2022-11-16T04:16:38.486Z,96.60
2022-11-16T04:19:27.449Z,95.00
2022-11-16T04:22:15.723Z,94.70
2022-11-16T04:24:47.662Z,93.90
2022-11-16T04:27:33.899Z,92.80
2022-11-16T04:30:03.469Z,92.40
2022-11-16T04:32:48.976Z,92.40
2022-11-16T04:35:35.634Z,92.60
2022-11-16T04:38:03.458Z,93.00
2022-11-16T04:40:31.225Z,93.60
2022-11-16T04:43:00.453Z,94.10
2022-11-16T04:45:46.348Z,94.90
2022-11-16T04:48:15.830Z,95.60
2022-11-16T04:50:45.320Z,96.30
2022-11-16T04:53:13.539Z,97.10
2022-11-16T04:55:41.313Z,98.00
2022-11-16T04:58:09.261Z,97.40
2022-11-16T05:00:37.166Z,97.50
2022-11-16T05:03:05.768Z,96.80
2022-11-16T05:05:33.618Z,97.30
2022-11-16T05:08:02.769Z,97.90
2022-11-16T05:10:30.560Z,97.90
2022-11-16T05:12:58.963Z,98.40
2022-11-16T05:15:26.779Z,98.80
2022-11-16T05:17:55.736Z,98.80
2022-11-16T05:20:41.135Z,98.80
2022-11-16T05:23:30.565Z,98.40
2022-11-16T05:25:58.351Z,97.80
2022-11-16T05:28:26.128Z,96.80
2022-11-16T05:30:53.923Z,96.20
2022-11-16T05:33:21.721Z,96.10
2022-11-16T05:35:50.680Z,96.20
2022-11-16T05:38:20.330Z,96.00
2022-11-16T05:40:48.147Z,96.10
2022-11-16T05:43:15.914Z,96.20
2022-11-16T05:45:44.240Z,95.60
2022-11-16T05:48:12.008Z,95.60
2022-11-16T05:50:42.802Z,95.50
2022-11-16T05:53:11.078Z,95.20
2022-11-16T05:55:40.237Z,94.90
2022-11-16T05:58:08.051Z,94.60
2022-11-16T06:00:35.842Z,94.30
2022-11-16T06:03:03.683Z,93.90
2022-11-16T06:05:33.265Z,93.80
2022-11-16T06:08:04.156Z,93.50
2022-11-16T06:10:32.234Z,93.50
2022-11-16T06:13:01.351Z,93.60
2022-11-16T06:15:29.240Z,94.00
2022-11-16T06:17:57.051Z,94.40
2022-11-16T06:20:25.046Z,95.10
2022-11-16T06:22:52.814Z,96.00
2022-11-16T06:25:20.636Z,96.70
2022-11-16T06:27:48.437Z,97.70
2022-11-16T06:30:18.021Z,98.00
2022-11-16T06:32:45.824Z,98.40
2022-11-16T06:35:13.646Z,98.20
2022-11-16T06:37:41.434Z,98.00
2022-11-16T06:40:10.864Z,98.00
2022-11-16T06:42:38.668Z,96.80
2022-11-16T06:45:07.298Z,96.50
2022-11-16T06:47:36.501Z,96.60
2022-11-16T06:50:04.811Z,96.70
2022-11-16T06:52:32.664Z,96.90
2022-11-16T06:55:00.492Z,96.10
2022-11-16T06:57:28.296Z,95.30
2022-11-16T06:59:56.215Z,94.60
2022-11-16T07:02:23.986Z,94.30
2022-11-16T07:04:53.134Z,95.20
2022-11-16T07:07:21.000Z,95.80
2022-11-16T07:09:48.909Z,95.50
2022-11-16T07:12:16.706Z,95.20
2022-11-16T07:14:45.393Z,95.60
2022-11-16T07:17:13.177Z,95.30
2022-11-16T07:19:41.033Z,95.30
2022-11-16T07:22:10.124Z,95.00
2022-11-16T07:24:38.886Z,95.30
2022-11-16T07:27:08.586Z,94.60
2022-11-16T07:29:36.415Z,93.70
2022-11-16T07:32:04.198Z,93.70
2022-11-16T07:34:31.962Z,93.10
2022-11-16T07:36:59.732Z,92.50
2022-11-16T07:39:28.910Z,92.20
2022-11-16T07:41:56.676Z,91.70
2022-11-16T07:44:24.442Z,91.20
2022-11-16T07:46:52.206Z,90.50
2022-11-16T07:49:20.723Z,89.80
2022-11-16T07:51:48.525Z,90.20
2022-11-16T07:54:17.002Z,90.70
2022-11-16T07:56:46.110Z,91.30
2022-11-16T07:59:13.939Z,90.20
2022-11-16T08:01:41.810Z,89.20
2022-11-16T08:04:09.628Z,88.80
2022-11-16T08:06:37.426Z,89.00
2022-11-16T08:09:05.404Z,88.70
2022-11-16T08:11:33.261Z,88.50
2022-11-16T08:14:02.419Z,88.60
2022-11-16T08:16:33.096Z,88.80
2022-11-16T08:19:01.066Z,88.90
2022-11-16T08:21:28.953Z,89.10
2022-11-16T08:23:58.709Z,89.20
2022-11-16T08:26:27.069Z,89.00
2022-11-16T08:28:57.045Z,88.80
2022-11-16T08:31:28.442Z,88.60
2022-11-16T08:33:56.940Z,87.80
2022-11-16T08:36:25.038Z,88.40
2022-11-16T08:38:53.800Z,87.90
2022-11-16T08:41:22.621Z,88.00
2022-11-16T08:43:53.094Z,86.60
2022-11-16T08:46:21.628Z,86.10
2022-11-16T08:48:50.763Z,84.70
2022-11-16T08:51:20.116Z,82.70
2022-11-16T08:53:49.292Z,83.20
2022-11-16T08:56:18.763Z,81.70
2022-11-16T08:58:47.669Z,81.30
2022-11-16T09:01:24.167Z,80.70
2022-11-16T09:03:54.313Z,80.90
2022-11-16T09:06:22.810Z,79.50
2022-11-16T09:08:50.954Z,80.50
2022-11-16T09:11:20.636Z,79.30
2022-11-16T09:13:49.661Z,78.30
2022-11-16T09:16:20.587Z,78.20
2022-11-16T09:18:49.816Z,77.40
2022-11-16T09:21:20.404Z,77.30
2022-11-16T09:23:48.710Z,77.60
2022-11-16T09:26:22.767Z,77.40
2022-11-16T09:28:56.697Z,75.70
2022-11-16T09:31:24.736Z,75.50
2022-11-16T09:33:52.541Z,74.10
2022-11-16T09:36:21.910Z,72.60
2022-11-16T09:41:57.053Z,70.90
2022-11-16T09:44:45.423Z,70.50
2022-11-16T09:47:18.601Z,70.20
2022-11-16T09:49:52.212Z,70.50
2022-11-16T09:52:27.573Z,72.20
2022-11-16T09:54:57.768Z,70.40
2022-11-16T09:57:30.183Z,70.30
2022-11-16T10:00:03.229Z,70.80
2022-11-16T10:02:35.329Z,69.50
2022-11-16T10:05:11.414Z,71.00
2022-11-16T10:07:45.904Z,69.80
2022-11-16T10:10:14.790Z,69.30
2022-11-16T10:12:49.414Z,70.80
2022-11-16T10:15:36.011Z,70.70
2022-11-16T10:18:13.414Z,70.10
2022-11-16T10:21:08.138Z,68.80
2022-11-16T10:23:51.185Z,68.80
2022-11-16T10:26:30.823Z,68.20
2022-11-16T10:29:22.435Z,69.30
2022-11-16T10:32:08.819Z,68.00
2022-11-16T10:34:46.634Z,68.80
2022-11-16T10:37:14.847Z,68.20
2022-11-16T10:39:44.355Z,67.90
2022-11-16T10:42:17.397Z,68.80
2022-11-16T10:44:47.541Z,68.60
2022-11-16T10:47:20.651Z,67.20
2022-11-16T10:49:56.812Z,66.60
2022-11-16T10:52:25.195Z,67.80
2022-11-16T10:54:54.761Z,68.30
2022-11-16T10:57:24.789Z,68.10
2022-11-16T10:59:55.621Z,67.20
2022-11-16T11:02:34.541Z,66.10
2022-11-16T11:05:07.926Z,65.90
2022-11-16T11:07:39.692Z,67.40
2022-11-16T11:10:28.500Z,67.60
2022-11-16T11:13:08.573Z,67.00
2022-11-16T11:15:36.682Z,65.90
2022-11-16T11:18:26.220Z,66.00
2022-11-16T11:21:06.751Z,65.20
2022-11-16T11:23:43.446Z,66.50
2022-11-16T11:26:34.749Z,65.30
2022-11-16T11:29:10.602Z,66.20
2022-11-16T11:31:44.962Z,65.60
2022-11-16T11:34:19.799Z,63.80
2022-11-16T11:36:51.230Z,65.50
2022-11-16T11:39:37.665Z,65.10
2022-11-16T11:42:20.852Z,64.80
2022-11-16T11:44:57.160Z,64.70
2022-11-16T11:50:22.456Z,63.40
2022-11-16T11:53:03.239Z,63.00
2022-11-16T11:55:31.079Z,63.90
2022-11-16T11:58:02.639Z,63.60
2022-11-16T12:00:39.108Z,63.20
2022-11-16T12:03:38.493Z,63.30
2022-11-16T12:06:18.745Z,62.80
2022-11-16T12:09:20.026Z,63.60
2022-11-16T12:12:04.059Z,61.30
2022-11-16T12:14:51.592Z,61.60
2022-11-16T12:17:26.908Z,62.80
2022-11-16T12:20:36.708Z,62.00
2022-11-16T12:23:30.573Z,62.20
2022-11-16T12:26:06.872Z,60.90
2022-11-16T12:28:50.891Z,61.20
2022-11-16T12:31:40.260Z,61.20
2022-11-16T12:34:15.880Z,61.30
2022-11-16T12:36:56.442Z,61.70
2022-11-16T12:39:28.543Z,61.70
2022-11-16T12:42:22.549Z,62.30
2022-11-16T12:45:14.340Z,61.80
2022-11-16T12:47:57.940Z,62.30
2022-11-16T12:50:46.288Z,62.70
2022-11-16T12:53:36.167Z,61.80
2022-11-16T12:56:13.326Z,61.90
2022-11-16T12:59:02.363Z,62.30
2022-11-16T13:01:36.602Z,60.90
2022-11-16T13:04:11.420Z,62.20
2022-11-16T13:06:43.356Z,63.00
2022-11-16T13:09:17.059Z,62.30
2022-11-16T13:11:48.901Z,63.00
2022-11-16T13:14:20.472Z,62.80
2022-11-16T13:16:49.046Z,63.10
2022-11-16T13:19:19.005Z,61.70
2022-11-16T13:21:54.746Z,62.90
2022-11-16T13:24:43.930Z,61.70
2022-11-16T13:27:22.028Z,62.40
2022-11-16T13:29:56.732Z,64.00
2022-11-16T13:32:31.429Z,63.30
2022-11-16T13:35:04.390Z,62.30
2022-11-16T13:37:46.126Z,61.60
2022-11-16T13:40:29.170Z,62.90
2022-11-16T13:43:16.690Z,60.40
2022-11-16T13:45:57.939Z,60.30
2022-11-16T13:48:30.541Z,59.40
2022-11-16T13:51:02.547Z,59.70
2022-11-16T13:56:27.360Z,59.40
2022-11-16T13:58:58.223Z,59.80
2022-11-16T14:01:26.566Z,59.40
2022-11-16T14:04:33.181Z,59.00
2022-11-16T14:07:02.512Z,60.00
2022-11-16T14:09:44.719Z,60.00
2022-11-16T14:12:58.348Z,60.60
2022-11-16T14:15:34.866Z,61.80
2022-11-16T14:18:22.792Z,60.90
2022-11-16T14:20:57.104Z,62.40
2022-11-16T14:23:54.331Z,62.10
2022-11-16T14:26:27.482Z,61.40
2022-11-16T14:29:20.035Z,62.40
2022-11-16T14:31:51.438Z,62.00
2022-11-16T14:34:21.925Z,62.30
2022-11-16T14:36:50.909Z,63.30
2022-11-16T14:39:31.270Z,64.50
2022-11-16T14:42:02.612Z,64.00
2022-11-16T14:44:34.700Z,64.20
2022-11-16T14:47:04.816Z,65.80
2022-11-16T14:49:35.574Z,64.90
2022-11-16T14:52:05.343Z,65.00
2022-11-16T14:54:39.394Z,65.30
2022-11-16T14:57:11.852Z,65.10
2022-11-16T14:59:39.688Z,65.30
2022-11-16T15:02:20.393Z,66.30
2022-11-16T15:04:48.888Z,66.10
2022-11-16T15:07:18.613Z,66.70
2022-11-16T15:09:50.374Z,66.00
2022-11-16T15:12:38.544Z,66.10
2022-11-16T15:15:13.249Z,66.90
2022-11-16T15:17:43.129Z,67.00
2022-11-16T15:20:19.607Z,67.40
2022-11-16T15:22:49.668Z,67.80
2022-11-16T15:25:30.511Z,67.60
2022-11-16T15:28:00.261Z,67.60
2022-11-16T15:30:30.572Z,67.90
2022-11-16T15:32:58.840Z,68.50
2022-11-16T15:35:30.238Z,69.10
2022-11-16T15:38:06.827Z,69.90
2022-11-16T15:40:36.769Z,70.20
2022-11-16T15:43:06.909Z,70.50
2022-11-16T15:45:35.249Z,70.40
2022-11-16T15:48:04.845Z,70.40
2022-11-16T15:50:32.826Z,71.30
2022-11-16T15:53:00.600Z,71.60
2022-11-16T15:55:34.017Z,72.80
2022-11-16T15:58:15.762Z,73.70
2022-11-16T16:00:48.127Z,75.00
2022-11-16T16:03:22.721Z,76.10
2022-11-16T16:05:50.887Z,76.70
2022-11-16T16:08:31.169Z,77.40
2022-11-16T16:11:00.781Z,78.10
2022-11-16T16:13:32.563Z,78.40
2022-11-16T16:16:20.704Z,78.60
2022-11-16T16:18:49.605Z,79.90
2022-11-16T16:21:17.814Z,80.40
2022-11-16T16:23:47.018Z,80.40
2022-11-16T16:26:15.357Z,80.50
2022-11-16T16:28:45.010Z,81.60
2022-11-16T16:31:14.355Z,81.70
2022-11-16T16:33:42.445Z,82.60
2022-11-16T16:36:13.470Z,83.10
2022-11-16T16:38:41.450Z,83.30
2022-11-16T16:41:24.313Z,83.80
2022-11-16T16:43:53.880Z,84.10
2022-11-16T16:46:21.822Z,84.40
2022-11-16T16:48:49.766Z,84.90
2022-11-16T16:51:17.578Z,85.10
2022-11-16T16:53:45.380Z,85.40
2022-11-16T16:56:16.026Z,84.80
2022-11-16T16:58:43.848Z,85.00
2022-11-16T17:01:14.016Z,86.00
2022-11-16T17:03:41.858Z,85.50
2022-11-16T17:06:09.698Z,85.20
2022-11-16T17:08:38.934Z,84.60
2022-11-16T17:11:06.784Z,86.00
2022-11-16T17:13:34.919Z,85.40
2022-11-16T17:16:06.586Z,85.00
2022-11-16T17:18:35.899Z,85.30
2022-11-16T17:21:07.312Z,85.10
2022-11-16T17:23:35.594Z,85.70
2022-11-16T17:26:05.673Z,85.40
2022-11-16T17:28:33.441Z,86.30
2022-11-16T17:31:05.193Z,85.90
2022-11-16T17:33:36.636Z,85.90
2022-11-16T17:36:05.767Z,86.80
2022-11-16T17:38:34.486Z,85.00
2022-11-16T17:41:06.944Z,84.50
2022-11-16T17:43:35.675Z,85.20
2022-11-16T17:46:07.807Z,85.30
2022-11-16T17:48:38.043Z,85.10
2022-11-16T17:51:06.529Z,86.10
2022-11-16T17:53:35.206Z,87.40
2022-11-16T17:56:03.825Z,88.60
2022-11-16T17:58:32.612Z,87.00
2022-11-16T18:01:00.557Z,87.90
2022-11-16T18:03:28.476Z,88.00
2022-11-16T18:06:04.853Z,86.70
2022-11-16T18:08:32.920Z,85.80
2022-11-16T18:11:05.316Z,84.90
2022-11-16T18:13:33.621Z,86.90
2022-11-16T18:16:06.503Z,86.60
2022-11-16T18:18:34.797Z,84.50
2022-11-16T18:21:04.060Z,83.30
2022-11-16T18:23:32.264Z,84.10
2022-11-16T18:26:00.427Z,85.20
2022-11-16T18:28:28.218Z,83.60
2022-11-16T18:31:03.934Z,83.10
2022-11-16T18:33:32.344Z,83.70
2022-11-16T18:36:00.477Z,85.80
2022-11-16T18:38:29.649Z,87.10
2022-11-16T18:41:04.797Z,86.50
2022-11-16T18:43:34.077Z,85.90
2022-11-16T18:46:02.641Z,85.70
2022-11-16T18:48:30.689Z,86.30
2022-11-16T18:50:59.452Z,85.30
2022-11-16T18:53:28.961Z,82.70
2022-11-16T18:55:58.304Z,81.90
2022-11-16T19:01:17.559Z,80.90
2022-11-16T19:03:45.399Z,80.10
2022-11-16T19:06:14.814Z,79.80
2022-11-16T19:08:44.221Z,79.90
2022-11-16T19:11:14.092Z,79.50
2022-11-16T19:13:43.314Z,79.10
2022-11-16T19:16:12.527Z,79.40
2022-11-16T19:18:40.666Z,79.90
2022-11-16T19:21:11.045Z,79.40
2022-11-16T19:23:39.303Z,79.60
2022-11-16T19:26:08.785Z,80.50
2022-11-16T19:28:37.633Z,80.90
2022-11-16T19:31:09.524Z,81.80
2022-11-16T19:33:38.161Z,82.00
2022-11-16T19:36:10.618Z,81.70
2022-11-16T19:38:38.557Z,82.50
2022-11-16T19:41:08.944Z,82.40
2022-11-16T19:43:37.225Z,82.70
2022-11-16T19:46:06.212Z,82.90
2022-11-16T19:48:34.520Z,84.10
2022-11-16T19:51:06.490Z,85.30
2022-11-16T19:53:34.824Z,85.00
2022-11-16T19:56:03.265Z,85.30
2022-11-16T19:58:32.950Z,85.30
2022-11-16T20:01:03.939Z,88.00
2022-11-16T20:03:32.862Z,87.10
2022-11-16T20:06:09.126Z,86.60
2022-11-16T20:08:37.375Z,87.80
2022-11-16T20:11:12.733Z,88.00
2022-11-16T20:13:42.908Z,90.10
2022-11-16T20:16:12.561Z,90.50
2022-11-16T20:18:41.439Z,89.30
2022-11-16T20:21:12.690Z,88.50
2022-11-16T20:23:40.441Z,88.40
2022-11-16T20:26:09.760Z,88.40
2022-11-16T20:28:38.418Z,87.00
2022-11-16T20:31:09.876Z,88.20
2022-11-16T20:33:38.053Z,87.70
2022-11-16T20:36:08.581Z,87.70
2022-11-16T20:38:37.386Z,85.80
2022-11-16T20:41:09.533Z,83.90
2022-11-16T20:43:39.195Z,84.40
2022-11-16T20:46:09.362Z,83.70
2022-11-16T20:48:38.036Z,86.00
2022-11-16T20:51:06.348Z,86.00
2022-11-16T20:53:35.372Z,85.70
2022-11-16T20:56:04.293Z,84.90
2022-11-16T20:58:32.463Z,85.90
2022-11-16T21:01:01.762Z,86.70
2022-11-16T21:03:31.046Z,88.40
2022-11-16T21:05:59.010Z,88.40
2022-11-16T21:08:27.365Z,86.80
2022-11-16T21:10:55.512Z,87.60
2022-11-16T21:13:40.865Z,88.10
2022-11-16T21:16:11.327Z,91.10
2022-11-16T21:18:41.289Z,87.00
2022-11-16T21:21:11.270Z,88.10
2022-11-16T21:23:41.006Z,88.20
2022-11-16T21:26:11.409Z,89.30
2022-11-16T21:28:39.687Z,89.00
2022-11-16T21:31:11.263Z,89.30
2022-11-16T21:33:40.708Z,88.20
2022-11-16T21:36:11.650Z,89.70
2022-11-16T21:38:39.605Z,89.10
2022-11-16T21:41:07.741Z,87.20
2022-11-16T21:43:36.583Z,86.40
2022-11-16T21:46:06.412Z,86.20
2022-11-16T21:48:34.645Z,85.10
2022-11-16T21:51:05.504Z,84.00
2022-11-16T21:53:34.351Z,84.50
2022-11-16T21:56:02.853Z,84.80
2022-11-16T21:58:30.662Z,86.10
2022-11-16T22:00:59.976Z,87.20
2022-11-16T22:03:29.634Z,87.20
2022-11-16T22:06:17.332Z,86.60
2022-11-16T22:08:47.397Z,86.60
2022-11-16T22:11:16.320Z,87.80
2022-11-16T22:13:44.747Z,88.90
2022-11-16T22:16:15.020Z,88.90
2022-11-16T22:18:43.229Z,86.50
2022-11-16T22:21:11.356Z,85.00
2022-11-16T22:23:39.789Z,84.80
2022-11-16T22:26:11.455Z,83.50
2022-11-16T22:28:39.984Z,82.80
2022-11-16T22:31:10.275Z,82.10
2022-11-16T22:33:38.622Z,81.90
2022-11-16T22:36:09.241Z,82.20
2022-11-16T22:38:40.360Z,81.00
2022-11-16T22:41:10.032Z,80.00
2022-11-16T22:43:38.932Z,79.10
2022-11-16T22:46:07.388Z,79.00
2022-11-16T22:48:37.763Z,79.10
2022-11-16T22:51:07.742Z,78.90
2022-11-16T22:53:36.202Z,78.50
2022-11-16T22:56:06.382Z,78.40
2022-11-16T22:58:35.749Z,77.90
2022-11-16T23:01:03.697Z,77.40
2022-11-16T23:03:32.401Z,77.10
2022-11-16T23:06:00.653Z,76.60
2022-11-16T23:08:28.813Z,76.10
2022-11-16T23:11:19.016Z,75.30
2022-11-16T23:14:06.176Z,75.00
2022-11-16T23:16:34.824Z,75.60
2022-11-16T23:19:02.761Z,75.80
2022-11-16T23:21:48.147Z,75.60
2022-11-16T23:24:34.131Z,75.70
2022-11-16T23:27:21.603Z,76.10
2022-11-16T23:29:51.446Z,76.60
2022-11-16T23:32:19.266Z,77.20
2022-11-16T23:34:47.091Z,77.40
2022-11-16T23:37:14.906Z,78.60
2022-11-16T23:39:42.766Z,79.40
2022-11-16T23:42:29.200Z,80.00
2022-11-16T23:44:58.402Z,79.90
2022-11-16T23:47:26.420Z,79.60
2022-11-16T23:49:54.177Z,79.30
2022-11-16T23:52:25.933Z,79.00
2022-11-16T23:54:53.757Z,78.60
2022-11-16T23:57:21.610Z,78.30
2022-11-16T23:59:49.418Z,77.60
